sensor_id;sensor_type;location;lat;lon;timestamp;P1;durP1;ratioP1;P2;durP2;ratioP2
62582;SDS011;48641;51.676;5.808;2023-08-30T00:00:40;5.20;;;2.50;;
62582;SDS011;48641;51.676;5.808;2023-08-30T00:03:06;5.95;;;2.85;;
62582;SDS011;48641;51.676;5.808;2023-08-30T00:05:32;5.63;;;2.70;;
62582;SDS011;48641;51.676;5.808;2023-08-30T00:07:57;5.47;;;2.58;;
62582;SDS011;48641;51.676;5.808;2023-08-30T00:10:23;6.35;;;2.80;;
62582;SDS011;48641;51.676;5.808;2023-08-30T00:12:49;6.22;;;2.97;;
62582;SDS011;48641;51.676;5.808;2023-08-30T00:15:15;7.35;;;3.05;;
62582;SDS011;48641;51.676;5.808;2023-08-30T00:17:40;6.05;;;2.55;;
62582;SDS011;48641;51.676;5.808;2023-08-30T00:20:06;5.82;;;2.50;;
62582;SDS011;48641;51.676;5.808;2023-08-30T00:22:33;5.85;;;2.53;;
62582;SDS011;48641;51.676;5.808;2023-08-30T00:24:59;6.78;;;2.80;;
62582;SDS011;48641;51.676;5.808;2023-08-30T00:27:25;6.05;;;2.45;;
62582;SDS011;48641;51.676;5.808;2023-08-30T00:29:50;7.22;;;2.60;;
62582;SDS011;48641;51.676;5.808;2023-08-30T00:32:16;6.07;;;2.70;;
62582;SDS011;48641;51.676;5.808;2023-08-30T00:34:42;6.07;;;2.78;;
62582;SDS011;48641;51.676;5.808;2023-08-30T00:37:08;5.90;;;2.72;;
62582;SDS011;48641;51.676;5.808;2023-08-30T00:39:34;5.20;;;2.50;;
62582;SDS011;48641;51.676;5.808;2023-08-30T00:42:02;5.75;;;2.53;;
62582;SDS011;48641;51.676;5.808;2023-08-30T00:44:30;7.43;;;2.80;;
62582;SDS011;48641;51.676;5.808;2023-08-30T00:46:57;5.35;;;2.40;;
62582;SDS011;48641;51.676;5.808;2023-08-30T00:49:23;5.20;;;2.42;;
62582;SDS011;48641;51.676;5.808;2023-08-30T00:51:48;4.75;;;2.30;;
62582;SDS011;48641;51.676;5.808;2023-08-30T00:54:14;6.13;;;2.33;;
62582;SDS011;48641;51.676;5.808;2023-08-30T00:56:41;6.22;;;2.88;;
62582;SDS011;48641;51.676;5.808;2023-08-30T00:59:06;6.15;;;2.50;;
62582;SDS011;48641;51.676;5.808;2023-08-30T01:01:32;4.97;;;2.40;;
62582;SDS011;48641;51.676;5.808;2023-08-30T01:03:58;6.18;;;2.50;;
62582;SDS011;48641;51.676;5.808;2023-08-30T01:06:23;5.07;;;2.67;;
62582;SDS011;48641;51.676;5.808;2023-08-30T01:08:49;5.28;;;2.47;;
62582;SDS011;48641;51.676;5.808;2023-08-30T01:11:19;5.90;;;2.60;;
62582;SDS011;48641;51.676;5.808;2023-08-30T01:13:58;6.00;;;2.38;;
62582;SDS011;48641;51.676;5.808;2023-08-30T01:16:30;6.68;;;2.45;;
62582;SDS011;48641;51.676;5.808;2023-08-30T01:18:56;5.80;;;2.40;;
62582;SDS011;48641;51.676;5.808;2023-08-30T01:21:32;4.13;;;2.05;;
62582;SDS011;48641;51.676;5.808;2023-08-30T01:24:13;4.75;;;2.15;;
62582;SDS011;48641;51.676;5.808;2023-08-30T01:29:33;5.45;;;2.70;;
62582;SDS011;48641;51.676;5.808;2023-08-30T01:32:00;5.90;;;2.72;;
62582;SDS011;48641;51.676;5.808;2023-08-30T01:34:27;6.15;;;2.10;;
62582;SDS011;48641;51.676;5.808;2023-08-30T01:36:53;4.80;;;2.17;;
62582;SDS011;48641;51.676;5.808;2023-08-30T01:39:19;5.68;;;2.25;;
62582;SDS011;48641;51.676;5.808;2023-08-30T01:41:46;4.72;;;2.00;;
62582;SDS011;48641;51.676;5.808;2023-08-30T01:44:12;5.93;;;2.45;;
62582;SDS011;48641;51.676;5.808;2023-08-30T01:46:41;5.13;;;2.50;;
62582;SDS011;48641;51.676;5.808;2023-08-30T01:49:07;4.95;;;2.30;;
62582;SDS011;48641;51.676;5.808;2023-08-30T01:51:33;5.15;;;2.40;;
62582;SDS011;48641;51.676;5.808;2023-08-30T01:53:59;5.18;;;2.10;;
62582;SDS011;48641;51.676;5.808;2023-08-30T01:56:25;6.10;;;2.30;;
62582;SDS011;48641;51.676;5.808;2023-08-30T01:58:51;4.95;;;2.42;;
62582;SDS011;48641;51.676;5.808;2023-08-30T02:01:16;5.50;;;2.10;;
62582;SDS011;48641;51.676;5.808;2023-08-30T02:03:45;5.68;;;2.38;;
62582;SDS011;48641;51.676;5.808;2023-08-30T02:06:26;4.90;;;2.10;;
62582;SDS011;48641;51.676;5.808;2023-08-30T02:09:04;5.78;;;2.30;;
62582;SDS011;48641;51.676;5.808;2023-08-30T02:11:37;5.38;;;1.92;;
62582;SDS011;48641;51.676;5.808;2023-08-30T02:14:04;5.82;;;2.45;;
62582;SDS011;48641;51.676;5.808;2023-08-30T02:16:33;4.00;;;1.95;;
62582;SDS011;48641;51.676;5.808;2023-08-30T02:19:00;5.75;;;2.10;;
62582;SDS011;48641;51.676;5.808;2023-08-30T02:21:27;4.38;;;2.15;;
62582;SDS011;48641;51.676;5.808;2023-08-30T02:23:53;4.25;;;1.88;;
62582;SDS011;48641;51.676;5.808;2023-08-30T02:26:19;5.68;;;2.20;;
62582;SDS011;48641;51.676;5.808;2023-08-30T02:28:45;5.70;;;2.40;;
62582;SDS011;48641;51.676;5.808;2023-08-30T02:31:11;5.95;;;2.58;;
62582;SDS011;48641;51.676;5.808;2023-08-30T02:33:36;6.32;;;2.42;;
62582;SDS011;48641;51.676;5.808;2023-08-30T02:36:02;5.60;;;2.35;;
62582;SDS011;48641;51.676;5.808;2023-08-30T02:38:28;4.97;;;2.20;;
62582;SDS011;48641;51.676;5.808;2023-08-30T02:40:54;5.60;;;2.30;;
62582;SDS011;48641;51.676;5.808;2023-08-30T02:43:20;4.97;;;2.03;;
62582;SDS011;48641;51.676;5.808;2023-08-30T02:45:45;4.85;;;2.08;;
62582;SDS011;48641;51.676;5.808;2023-08-30T02:48:11;6.07;;;2.47;;
62582;SDS011;48641;51.676;5.808;2023-08-30T02:50:36;5.03;;;2.30;;
62582;SDS011;48641;51.676;5.808;2023-08-30T02:53:02;6.28;;;2.28;;
62582;SDS011;48641;51.676;5.808;2023-08-30T02:55:30;4.22;;;1.92;;
62582;SDS011;48641;51.676;5.808;2023-08-30T02:57:55;6.07;;;2.25;;
62582;SDS011;48641;51.676;5.808;2023-08-30T03:00:21;4.55;;;2.10;;
62582;SDS011;48641;51.676;5.808;2023-08-30T03:02:47;5.55;;;2.40;;
62582;SDS011;48641;51.676;5.808;2023-08-30T03:05:13;5.28;;;2.03;;
62582;SDS011;48641;51.676;5.808;2023-08-30T03:07:39;4.97;;;2.20;;
62582;SDS011;48641;51.676;5.808;2023-08-30T03:10:05;4.63;;;2.10;;
62582;SDS011;48641;51.676;5.808;2023-08-30T03:12:31;5.57;;;2.10;;
62582;SDS011;48641;51.676;5.808;2023-08-30T03:14:56;4.32;;;2.08;;
62582;SDS011;48641;51.676;5.808;2023-08-30T03:17:22;4.63;;;2.10;;
62582;SDS011;48641;51.676;5.808;2023-08-30T03:19:51;5.25;;;2.25;;
62582;SDS011;48641;51.676;5.808;2023-08-30T03:22:18;5.03;;;2.10;;
62582;SDS011;48641;51.676;5.808;2023-08-30T03:24:44;5.65;;;2.13;;
62582;SDS011;48641;51.676;5.808;2023-08-30T03:27:09;3.72;;;1.60;;
62582;SDS011;48641;51.676;5.808;2023-08-30T03:29:35;4.68;;;1.90;;
62582;SDS011;48641;51.676;5.808;2023-08-30T03:32:01;5.00;;;2.00;;
62582;SDS011;48641;51.676;5.808;2023-08-30T03:34:26;4.47;;;2.00;;
62582;SDS011;48641;51.676;5.808;2023-08-30T03:36:52;4.97;;;2.33;;
62582;SDS011;48641;51.676;5.808;2023-08-30T03:39:21;4.75;;;1.92;;
62582;SDS011;48641;51.676;5.808;2023-08-30T03:41:47;6.55;;;2.17;;
62582;SDS011;48641;51.676;5.808;2023-08-30T03:44:13;5.80;;;2.30;;
62582;SDS011;48641;51.676;5.808;2023-08-30T03:46:38;4.78;;;2.00;;
62582;SDS011;48641;51.676;5.808;2023-08-30T03:49:04;5.03;;;2.28;;
62582;SDS011;48641;51.676;5.808;2023-08-30T03:51:30;3.80;;;1.85;;
62582;SDS011;48641;51.676;5.808;2023-08-30T03:53:55;4.25;;;1.80;;
62582;SDS011;48641;51.676;5.808;2023-08-30T03:56:22;4.97;;;1.92;;
62582;SDS011;48641;51.676;5.808;2023-08-30T03:58:47;4.13;;;2.08;;
62582;SDS011;48641;51.676;5.808;2023-08-30T04:01:13;4.63;;;2.05;;
62582;SDS011;48641;51.676;5.808;2023-08-30T04:03:39;5.05;;;1.92;;
62582;SDS011;48641;51.676;5.808;2023-08-30T04:06:04;4.20;;;2.00;;
62582;SDS011;48641;51.676;5.808;2023-08-30T04:08:30;4.35;;;1.90;;
62582;SDS011;48641;51.676;5.808;2023-08-30T04:10:56;4.35;;;2.03;;
62582;SDS011;48641;51.676;5.808;2023-08-30T04:13:22;3.75;;;1.85;;
62582;SDS011;48641;51.676;5.808;2023-08-30T04:15:47;5.07;;;2.03;;
62582;SDS011;48641;51.676;5.808;2023-08-30T04:18:13;5.00;;;1.90;;
62582;SDS011;48641;51.676;5.808;2023-08-30T04:20:43;4.50;;;2.00;;
62582;SDS011;48641;51.676;5.808;2023-08-30T04:23:09;5.43;;;1.98;;
62582;SDS011;48641;51.676;5.808;2023-08-30T04:25:35;4.60;;;2.00;;
62582;SDS011;48641;51.676;5.808;2023-08-30T04:28:01;4.20;;;2.05;;
62582;SDS011;48641;51.676;5.808;2023-08-30T04:30:27;3.88;;;1.90;;
62582;SDS011;48641;51.676;5.808;2023-08-30T04:32:53;4.38;;;1.95;;
62582;SDS011;48641;51.676;5.808;2023-08-30T04:35:19;4.35;;;1.90;;
62582;SDS011;48641;51.676;5.808;2023-08-30T04:37:44;4.75;;;1.80;;
62582;SDS011;48641;51.676;5.808;2023-08-30T04:40:10;5.53;;;2.00;;
62582;SDS011;48641;51.676;5.808;2023-08-30T04:42:36;5.03;;;2.20;;
62582;SDS011;48641;51.676;5.808;2023-08-30T04:45:03;4.25;;;1.90;;
62582;SDS011;48641;51.676;5.808;2023-08-30T04:47:29;4.43;;;2.10;;
62582;SDS011;48641;51.676;5.808;2023-08-30T04:49:57;4.00;;;1.80;;
62582;SDS011;48641;51.676;5.808;2023-08-30T04:52:23;4.82;;;2.38;;
62582;SDS011;48641;51.676;5.808;2023-08-30T04:54:49;5.05;;;1.90;;
62582;SDS011;48641;51.676;5.808;2023-08-30T04:57:17;4.38;;;2.05;;
62582;SDS011;48641;51.676;5.808;2023-08-30T04:59:43;3.35;;;1.67;;
62582;SDS011;48641;51.676;5.808;2023-08-30T05:02:10;4.43;;;2.10;;
62582;SDS011;48641;51.676;5.808;2023-08-30T05:04:36;4.18;;;1.95;;
62582;SDS011;48641;51.676;5.808;2023-08-30T05:07:02;4.63;;;2.10;;
62582;SDS011;48641;51.676;5.808;2023-08-30T05:09:28;4.82;;;2.00;;
62582;SDS011;48641;51.676;5.808;2023-08-30T05:11:57;3.67;;;1.80;;
62582;SDS011;48641;51.676;5.808;2023-08-30T05:14:23;4.35;;;1.95;;
62582;SDS011;48641;51.676;5.808;2023-08-30T05:16:49;4.55;;;1.90;;
62582;SDS011;48641;51.676;5.808;2023-08-30T05:19:15;4.32;;;1.90;;
62582;SDS011;48641;51.676;5.808;2023-08-30T05:21:43;4.00;;;2.10;;
62582;SDS011;48641;51.676;5.808;2023-08-30T05:24:09;4.93;;;2.05;;
62582;SDS011;48641;51.676;5.808;2023-08-30T05:26:35;5.28;;;2.17;;
62582;SDS011;48641;51.676;5.808;2023-08-30T05:29:01;4.78;;;2.03;;
62582;SDS011;48641;51.676;5.808;2023-08-30T05:31:27;5.00;;;2.00;;
62582;SDS011;48641;51.676;5.808;2023-08-30T05:33:52;3.80;;;2.00;;
62582;SDS011;48641;51.676;5.808;2023-08-30T05:36:18;5.28;;;2.20;;
62582;SDS011;48641;51.676;5.808;2023-08-30T05:38:44;4.50;;;1.95;;
62582;SDS011;48641;51.676;5.808;2023-08-30T05:41:09;4.75;;;2.00;;
62582;SDS011;48641;51.676;5.808;2023-08-30T05:43:35;4.78;;;1.90;;
62582;SDS011;48641;51.676;5.808;2023-08-30T05:46:00;4.68;;;2.20;;
62582;SDS011;48641;51.676;5.808;2023-08-30T05:48:28;4.10;;;1.80;;
62582;SDS011;48641;51.676;5.808;2023-08-30T05:50:54;4.28;;;2.00;;
62582;SDS011;48641;51.676;5.808;2023-08-30T05:53:20;4.85;;;2.08;;
62582;SDS011;48641;51.676;5.808;2023-08-30T05:55:45;4.63;;;1.92;;
62582;SDS011;48641;51.676;5.808;2023-08-30T05:58:11;4.65;;;2.05;;
62582;SDS011;48641;51.676;5.808;2023-08-30T06:00:38;4.78;;;2.20;;
62582;SDS011;48641;51.676;5.808;2023-08-30T06:03:04;5.35;;;2.42;;
62582;SDS011;48641;51.676;5.808;2023-08-30T06:05:30;4.85;;;2.10;;
62582;SDS011;48641;51.676;5.808;2023-08-30T06:07:55;4.63;;;1.98;;
62582;SDS011;48641;51.676;5.808;2023-08-30T06:10:22;5.35;;;2.20;;
62582;SDS011;48641;51.676;5.808;2023-08-30T06:12:48;5.00;;;2.15;;
62582;SDS011;48641;51.676;5.808;2023-08-30T06:15:14;4.57;;;2.10;;
62582;SDS011;48641;51.676;5.808;2023-08-30T06:17:39;4.18;;;2.00;;
62582;SDS011;48641;51.676;5.808;2023-08-30T06:20:05;4.32;;;2.05;;
62582;SDS011;48641;51.676;5.808;2023-08-30T06:22:31;5.20;;;2.15;;
62582;SDS011;48641;51.676;5.808;2023-08-30T06:24:57;5.47;;;2.40;;
62582;SDS011;48641;51.676;5.808;2023-08-30T06:27:23;4.88;;;2.17;;
62582;SDS011;48641;51.676;5.808;2023-08-30T06:29:49;4.90;;;2.15;;
62582;SDS011;48641;51.676;5.808;2023-08-30T06:32:15;4.15;;;2.10;;
62582;SDS011;48641;51.676;5.808;2023-08-30T06:34:42;17.42;;;3.50;;
62582;SDS011;48641;51.676;5.808;2023-08-30T06:37:08;17.17;;;3.47;;
62582;SDS011;48641;51.676;5.808;2023-08-30T06:39:34;13.07;;;3.38;;
62582;SDS011;48641;51.676;5.808;2023-08-30T06:42:01;20.65;;;4.38;;
62582;SDS011;48641;51.676;5.808;2023-08-30T06:44:29;16.55;;;4.72;;
62582;SDS011;48641;51.676;5.808;2023-08-30T06:46:56;15.65;;;6.65;;
62582;SDS011;48641;51.676;5.808;2023-08-30T06:49:22;15.52;;;9.45;;
62582;SDS011;48641;51.676;5.808;2023-08-30T06:51:48;17.38;;;9.48;;
62582;SDS011;48641;51.676;5.808;2023-08-30T06:54:13;13.10;;;9.45;;
62582;SDS011;48641;51.676;5.808;2023-08-30T06:56:39;17.65;;;9.35;;
62582;SDS011;48641;51.676;5.808;2023-08-30T06:59:04;14.73;;;9.73;;
62582;SDS011;48641;51.676;5.808;2023-08-30T07:01:30;17.42;;;10.45;;
62582;SDS011;48641;51.676;5.808;2023-08-30T07:03:56;15.57;;;9.85;;
62582;SDS011;48641;51.676;5.808;2023-08-30T07:06:22;15.20;;;9.90;;
62582;SDS011;48641;51.676;5.808;2023-08-30T07:08:48;14.60;;;9.65;;
62582;SDS011;48641;51.676;5.808;2023-08-30T07:11:13;16.75;;;10.90;;
62582;SDS011;48641;51.676;5.808;2023-08-30T07:13:39;16.70;;;9.98;;
62582;SDS011;48641;51.676;5.808;2023-08-30T07:16:05;14.48;;;10.00;;
62582;SDS011;48641;51.676;5.808;2023-08-30T07:18:30;12.68;;;8.63;;
62582;SDS011;48641;51.676;5.808;2023-08-30T07:20:56;15.65;;;8.73;;
62582;SDS011;48641;51.676;5.808;2023-08-30T07:23:22;16.77;;;8.77;;
62582;SDS011;48641;51.676;5.808;2023-08-30T07:25:47;18.92;;;8.75;;
62582;SDS011;48641;51.676;5.808;2023-08-30T07:28:13;16.52;;;8.20;;
62582;SDS011;48641;51.676;5.808;2023-08-30T07:30:39;21.40;;;7.97;;
62582;SDS011;48641;51.676;5.808;2023-08-30T07:33:04;13.60;;;7.05;;
62582;SDS011;48641;51.676;5.808;2023-08-30T07:35:30;16.83;;;7.47;;
62582;SDS011;48641;51.676;5.808;2023-08-30T07:37:57;11.65;;;6.80;;
62582;SDS011;48641;51.676;5.808;2023-08-30T07:40:23;15.52;;;6.25;;
62582;SDS011;48641;51.676;5.808;2023-08-30T07:42:51;12.88;;;5.82;;
62582;SDS011;48641;51.676;5.808;2023-08-30T07:45:17;11.75;;;6.10;;
62582;SDS011;48641;51.676;5.808;2023-08-30T07:47:46;10.93;;;6.22;;
62582;SDS011;48641;51.676;5.808;2023-08-30T07:50:11;11.45;;;5.60;;
62582;SDS011;48641;51.676;5.808;2023-08-30T07:52:37;9.50;;;4.95;;
62582;SDS011;48641;51.676;5.808;2023-08-30T07:55:03;10.70;;;5.55;;
62582;SDS011;48641;51.676;5.808;2023-08-30T07:57:28;12.90;;;5.20;;
62582;SDS011;48641;51.676;5.808;2023-08-30T07:59:54;9.10;;;4.53;;
62582;SDS011;48641;51.676;5.808;2023-08-30T08:02:20;11.57;;;4.97;;
62582;SDS011;48641;51.676;5.808;2023-08-30T08:04:45;8.85;;;4.70;;
62582;SDS011;48641;51.676;5.808;2023-08-30T08:07:11;9.57;;;4.55;;
62582;SDS011;48641;51.676;5.808;2023-08-30T08:09:37;10.80;;;4.50;;
62582;SDS011;48641;51.676;5.808;2023-08-30T08:12:03;9.60;;;4.20;;
62582;SDS011;48641;51.676;5.808;2023-08-30T08:14:29;8.73;;;3.90;;
62582;SDS011;48641;51.676;5.808;2023-08-30T08:16:55;7.85;;;3.90;;
62582;SDS011;48641;51.676;5.808;2023-08-30T08:19:20;8.38;;;3.92;;
62582;SDS011;48641;51.676;5.808;2023-08-30T08:21:49;8.05;;;3.88;;
62582;SDS011;48641;51.676;5.808;2023-08-30T08:24:15;8.45;;;3.90;;
62582;SDS011;48641;51.676;5.808;2023-08-30T08:26:40;9.45;;;3.55;;
62582;SDS011;48641;51.676;5.808;2023-08-30T08:29:06;7.43;;;3.35;;
62582;SDS011;48641;51.676;5.808;2023-08-30T08:31:31;7.82;;;3.35;;
62582;SDS011;48641;51.676;5.808;2023-08-30T08:34:10;8.43;;;3.05;;
62582;SDS011;48641;51.676;5.808;2023-08-30T08:36:37;6.97;;;2.97;;
62582;SDS011;48641;51.676;5.808;2023-08-30T08:39:04;8.38;;;3.25;;
62582;SDS011;48641;51.676;5.808;2023-08-30T08:41:41;7.07;;;3.05;;
62582;SDS011;48641;51.676;5.808;2023-08-30T08:44:08;7.20;;;3.03;;
62582;SDS011;48641;51.676;5.808;2023-08-30T08:46:35;6.13;;;3.08;;
62582;SDS011;48641;51.676;5.808;2023-08-30T08:49:08;6.25;;;2.63;;
62582;SDS011;48641;51.676;5.808;2023-08-30T08:51:41;9.98;;;3.58;;
62582;SDS011;48641;51.676;5.808;2023-08-30T08:54:09;9.57;;;3.15;;
62582;SDS011;48641;51.676;5.808;2023-08-30T08:56:35;8.02;;;3.13;;
62582;SDS011;48641;51.676;5.808;2023-08-30T08:59:02;9.02;;;3.45;;
62582;SDS011;48641;51.676;5.808;2023-08-30T09:01:28;6.70;;;2.72;;
62582;SDS011;48641;51.676;5.808;2023-08-30T09:03:54;9.63;;;3.00;;
62582;SDS011;48641;51.676;5.808;2023-08-30T09:06:20;10.70;;;2.97;;
62582;SDS011;48641;51.676;5.808;2023-08-30T09:08:47;20.15;;;3.67;;
62582;SDS011;48641;51.676;5.808;2023-08-30T09:11:15;9.68;;;2.85;;
62582;SDS011;48641;51.676;5.808;2023-08-30T09:13:44;12.60;;;2.90;;
62582;SDS011;48641;51.676;5.808;2023-08-30T09:16:13;10.65;;;2.90;;
62582;SDS011;48641;51.676;5.808;2023-08-30T09:18:42;13.13;;;3.00;;
62582;SDS011;48641;51.676;5.808;2023-08-30T09:21:09;9.82;;;2.78;;
62582;SDS011;48641;51.676;5.808;2023-08-30T09:23:36;11.80;;;2.80;;
62582;SDS011;48641;51.676;5.808;2023-08-30T09:26:02;10.48;;;2.92;;
62582;SDS011;48641;51.676;5.808;2023-08-30T09:28:29;8.77;;;2.67;;
62582;SDS011;48641;51.676;5.808;2023-08-30T09:30:56;9.48;;;2.78;;
62582;SDS011;48641;51.676;5.808;2023-08-30T09:33:31;8.73;;;2.85;;
62582;SDS011;48641;51.676;5.808;2023-08-30T09:35:57;10.13;;;3.15;;
62582;SDS011;48641;51.676;5.808;2023-08-30T09:38:24;7.78;;;2.13;;
62582;SDS011;48641;51.676;5.808;2023-08-30T09:40:50;7.03;;;2.50;;
62582;SDS011;48641;51.676;5.808;2023-08-30T09:43:19;8.88;;;2.47;;
62582;SDS011;48641;51.676;5.808;2023-08-30T09:45:50;7.97;;;2.42;;
62582;SDS011;48641;51.676;5.808;2023-08-30T09:48:16;6.13;;;2.30;;
62582;SDS011;48641;51.676;5.808;2023-08-30T09:50:47;27.20;;;3.72;;
62582;SDS011;48641;51.676;5.808;2023-08-30T09:53:24;13.88;;;2.78;;
62582;SDS011;48641;51.676;5.808;2023-08-30T09:55:53;14.60;;;2.85;;
62582;SDS011;48641;51.676;5.808;2023-08-30T09:58:21;16.17;;;2.85;;
62582;SDS011;48641;51.676;5.808;2023-08-30T10:00:46;14.85;;;3.58;;
62582;SDS011;48641;51.676;5.808;2023-08-30T10:03:13;11.57;;;2.72;;
62582;SDS011;48641;51.676;5.808;2023-08-30T10:05:41;10.32;;;2.85;;
62582;SDS011;48641;51.676;5.808;2023-08-30T10:08:09;9.00;;;2.40;;
62582;SDS011;48641;51.676;5.808;2023-08-30T10:10:37;13.45;;;2.60;;
62582;SDS011;48641;51.676;5.808;2023-08-30T10:13:04;10.75;;;2.55;;
62582;SDS011;48641;51.676;5.808;2023-08-30T10:15:30;8.57;;;2.25;;
62582;SDS011;48641;51.676;5.808;2023-08-30T10:18:00;8.32;;;2.17;;
62582;SDS011;48641;51.676;5.808;2023-08-30T10:20:28;9.75;;;2.72;;
62582;SDS011;48641;51.676;5.808;2023-08-30T10:22:53;7.60;;;2.15;;
62582;SDS011;48641;51.676;5.808;2023-08-30T10:25:22;7.40;;;2.25;;
62582;SDS011;48641;51.676;5.808;2023-08-30T10:27:52;5.78;;;1.90;;
62582;SDS011;48641;51.676;5.808;2023-08-30T10:30:19;42.45;;;4.20;;
62582;SDS011;48641;51.676;5.808;2023-08-30T10:32:46;41.45;;;3.85;;
62582;SDS011;48641;51.676;5.808;2023-08-30T10:35:15;16.17;;;3.25;;
62582;SDS011;48641;51.676;5.808;2023-08-30T10:37:55;18.45;;;3.28;;
62582;SDS011;48641;51.676;5.808;2023-08-30T10:40:29;16.02;;;2.90;;
62582;SDS011;48641;51.676;5.808;2023-08-30T10:43:07;24.13;;;3.47;;
62582;SDS011;48641;51.676;5.808;2023-08-30T10:46:00;22.17;;;3.28;;
62582;SDS011;48641;51.676;5.808;2023-08-30T10:48:39;22.73;;;3.78;;
62582;SDS011;48641;51.676;5.808;2023-08-30T10:51:10;19.17;;;3.25;;
62582;SDS011;48641;51.676;5.808;2023-08-30T10:53:58;24.42;;;3.78;;
62582;SDS011;48641;51.676;5.808;2023-08-30T10:56:27;15.52;;;3.00;;
62582;SDS011;48641;51.676;5.808;2023-08-30T10:58:57;19.30;;;3.30;;
62582;SDS011;48641;51.676;5.808;2023-08-30T11:01:23;20.67;;;3.78;;
62582;SDS011;48641;51.676;5.808;2023-08-30T11:03:49;21.33;;;3.90;;
62582;SDS011;48641;51.676;5.808;2023-08-30T11:06:15;15.45;;;3.08;;
62582;SDS011;48641;51.676;5.808;2023-08-30T11:08:42;13.02;;;2.85;;
62582;SDS011;48641;51.676;5.808;2023-08-30T11:11:09;12.30;;;2.70;;
62582;SDS011;48641;51.676;5.808;2023-08-30T11:13:37;14.07;;;2.90;;
62582;SDS011;48641;51.676;5.808;2023-08-30T11:16:02;10.25;;;2.55;;
62582;SDS011;48641;51.676;5.808;2023-08-30T11:18:36;13.50;;;2.80;;
62582;SDS011;48641;51.676;5.808;2023-08-30T11:21:04;16.48;;;2.90;;
62582;SDS011;48641;51.676;5.808;2023-08-30T11:23:31;11.90;;;2.85;;
62582;SDS011;48641;51.676;5.808;2023-08-30T11:25:57;12.93;;;2.92;;
62582;SDS011;48641;51.676;5.808;2023-08-30T11:28:23;12.32;;;2.80;;
62582;SDS011;48641;51.676;5.808;2023-08-30T11:30:49;11.30;;;2.63;;
62582;SDS011;48641;51.676;5.808;2023-08-30T11:33:18;12.93;;;2.70;;
62582;SDS011;48641;51.676;5.808;2023-08-30T11:35:46;7.93;;;2.70;;
62582;SDS011;48641;51.676;5.808;2023-08-30T11:38:14;8.70;;;2.30;;
62582;SDS011;48641;51.676;5.808;2023-08-30T11:40:40;9.32;;;2.42;;
62582;SDS011;48641;51.676;5.808;2023-08-30T11:43:06;9.20;;;2.22;;
62582;SDS011;48641;51.676;5.808;2023-08-30T11:45:32;7.85;;;2.47;;
62582;SDS011;48641;51.676;5.808;2023-08-30T11:48:01;10.48;;;2.40;;
62582;SDS011;48641;51.676;5.808;2023-08-30T11:50:27;11.07;;;2.60;;
62582;SDS011;48641;51.676;5.808;2023-08-30T11:52:53;10.55;;;2.40;;
62582;SDS011;48641;51.676;5.808;2023-08-30T11:55:20;8.38;;;2.03;;
62582;SDS011;48641;51.676;5.808;2023-08-30T11:57:49;10.57;;;2.50;;
62582;SDS011;48641;51.676;5.808;2023-08-30T12:00:18;10.57;;;2.40;;
62582;SDS011;48641;51.676;5.808;2023-08-30T12:02:45;8.50;;;2.35;;
62582;SDS011;48641;51.676;5.808;2023-08-30T12:05:13;8.43;;;2.17;;
62582;SDS011;48641;51.676;5.808;2023-08-30T12:07:40;7.60;;;2.30;;
62582;SDS011;48641;51.676;5.808;2023-08-30T12:10:09;9.18;;;2.45;;
62582;SDS011;48641;51.676;5.808;2023-08-30T12:12:36;9.43;;;2.38;;
62582;SDS011;48641;51.676;5.808;2023-08-30T12:15:11;28.73;;;3.53;;
62582;SDS011;48641;51.676;5.808;2023-08-30T12:17:38;16.67;;;3.08;;
62582;SDS011;48641;51.676;5.808;2023-08-30T12:20:04;17.15;;;3.55;;
62582;SDS011;48641;51.676;5.808;2023-08-30T12:22:40;21.52;;;3.50;;
62582;SDS011;48641;51.676;5.808;2023-08-30T12:25:19;10.68;;;2.83;;
62582;SDS011;48641;51.676;5.808;2023-08-30T12:27:46;11.82;;;2.78;;
62582;SDS011;48641;51.676;5.808;2023-08-30T12:30:15;11.48;;;2.90;;
62582;SDS011;48641;51.676;5.808;2023-08-30T12:32:41;13.23;;;2.65;;
62582;SDS011;48641;51.676;5.808;2023-08-30T12:35:08;12.55;;;3.03;;
62582;SDS011;48641;51.676;5.808;2023-08-30T12:37:34;12.20;;;2.30;;
62582;SDS011;48641;51.676;5.808;2023-08-30T12:40:00;8.32;;;2.47;;
62582;SDS011;48641;51.676;5.808;2023-08-30T12:42:25;12.65;;;2.67;;
62582;SDS011;48641;51.676;5.808;2023-08-30T12:44:51;9.00;;;2.10;;
62582;SDS011;48641;51.676;5.808;2023-08-30T12:47:17;9.98;;;2.22;;
62582;SDS011;48641;51.676;5.808;2023-08-30T12:49:42;12.13;;;2.53;;
62582;SDS011;48641;51.676;5.808;2023-08-30T12:52:08;8.65;;;2.70;;
62582;SDS011;48641;51.676;5.808;2023-08-30T12:54:34;9.85;;;2.25;;
62582;SDS011;48641;51.676;5.808;2023-08-30T12:56:59;7.10;;;2.10;;
62582;SDS011;48641;51.676;5.808;2023-08-30T12:59:25;8.15;;;1.90;;
62582;SDS011;48641;51.676;5.808;2023-08-30T13:01:50;8.43;;;2.15;;
62582;SDS011;48641;51.676;5.808;2023-08-30T13:04:16;6.35;;;1.95;;
62582;SDS011;48641;51.676;5.808;2023-08-30T13:06:41;8.75;;;2.40;;
62582;SDS011;48641;51.676;5.808;2023-08-30T13:09:07;8.60;;;2.00;;
62582;SDS011;48641;51.676;5.808;2023-08-30T13:11:33;8.27;;;1.90;;
62582;SDS011;48641;51.676;5.808;2023-08-30T13:13:58;6.43;;;2.22;;
62582;SDS011;48641;51.676;5.808;2023-08-30T13:16:24;5.72;;;2.05;;
62582;SDS011;48641;51.676;5.808;2023-08-30T13:18:50;8.88;;;2.10;;
62582;SDS011;48641;51.676;5.808;2023-08-30T13:21:16;7.25;;;2.30;;
62582;SDS011;48641;51.676;5.808;2023-08-30T13:23:41;5.95;;;2.10;;
62582;SDS011;48641;51.676;5.808;2023-08-30T13:26:07;7.20;;;2.28;;
62582;SDS011;48641;51.676;5.808;2023-08-30T13:28:32;6.32;;;2.30;;
62582;SDS011;48641;51.676;5.808;2023-08-30T13:30:59;8.70;;;1.88;;
62582;SDS011;48641;51.676;5.808;2023-08-30T13:33:25;7.63;;;1.98;;
62582;SDS011;48641;51.676;5.808;2023-08-30T13:35:52;5.55;;;1.77;;
62582;SDS011;48641;51.676;5.808;2023-08-30T13:38:18;5.43;;;1.73;;
62582;SDS011;48641;51.676;5.808;2023-08-30T13:40:44;6.40;;;1.90;;
62582;SDS011;48641;51.676;5.808;2023-08-30T13:43:10;5.05;;;1.85;;
62582;SDS011;48641;51.676;5.808;2023-08-30T13:45:39;6.07;;;1.90;;
62582;SDS011;48641;51.676;5.808;2023-08-30T13:48:05;5.55;;;1.83;;
62582;SDS011;48641;51.676;5.808;2023-08-30T13:50:30;4.85;;;1.92;;
62582;SDS011;48641;51.676;5.808;2023-08-30T13:52:57;7.05;;;2.35;;
62582;SDS011;48641;51.676;5.808;2023-08-30T13:55:23;4.95;;;2.00;;
62582;SDS011;48641;51.676;5.808;2023-08-30T13:57:49;6.60;;;1.90;;
62582;SDS011;48641;51.676;5.808;2023-08-30T14:00:15;6.65;;;2.20;;
62582;SDS011;48641;51.676;5.808;2023-08-30T14:02:41;6.15;;;1.80;;
62582;SDS011;48641;51.676;5.808;2023-08-30T14:05:07;6.57;;;1.80;;
62582;SDS011;48641;51.676;5.808;2023-08-30T14:07:33;5.25;;;1.80;;
62582;SDS011;48641;51.676;5.808;2023-08-30T14:09:59;4.43;;;1.73;;
62582;SDS011;48641;51.676;5.808;2023-08-30T14:12:27;5.63;;;2.30;;
62582;SDS011;48641;51.676;5.808;2023-08-30T14:14:53;6.82;;;1.83;;
62582;SDS011;48641;51.676;5.808;2023-08-30T14:17:19;5.90;;;1.77;;
62582;SDS011;48641;51.676;5.808;2023-08-30T14:19:44;4.68;;;1.60;;
62582;SDS011;48641;51.676;5.808;2023-08-30T14:22:10;5.22;;;1.80;;
62582;SDS011;48641;51.676;5.808;2023-08-30T14:24:36;5.15;;;2.10;;
62582;SDS011;48641;51.676;5.808;2023-08-30T14:27:01;5.45;;;1.75;;
62582;SDS011;48641;51.676;5.808;2023-08-30T14:29:28;4.85;;;1.77;;
62582;SDS011;48641;51.676;5.808;2023-08-30T14:31:54;4.63;;;1.63;;
62582;SDS011;48641;51.676;5.808;2023-08-30T14:34:20;6.18;;;1.70;;
62582;SDS011;48641;51.676;5.808;2023-08-30T14:36:46;7.43;;;2.30;;
62582;SDS011;48641;51.676;5.808;2023-08-30T14:39:13;9.18;;;1.95;;
62582;SDS011;48641;51.676;5.808;2023-08-30T14:41:39;9.55;;;2.10;;
62582;SDS011;48641;51.676;5.808;2023-08-30T14:44:05;6.18;;;1.77;;